Beloit, Kansas
Current Conditions -  °F | °C
As of 3:55 AM on Saturday 25 Oct 2014 (Local Time) from KCNK Reporting Station
Clear Clear  
Wind Chill: 13°   Ceiling: Unl
Heat Index: 13°   Visibility: 10mi
Dew Point: 11°   Wind: 3mph
Humidity: 86%   Direction: 120°ESE
Pressure: 30.03"   Gusts: NA
Location:  39.46°N, 98.11°W
Report Text: KCNK 250855Z AUTO 12003KT 10SM CLR 13/11 A3003 RMK AO2 SLP158 T01280106 58000
Loading
Personal Weather Stations






























Interactive Weather Map
Tropical Storm Tracking
New forecast layout! Learn more

10-Day Weather Forecast

Advertisements
Track Severe Weather on mobile